ドーハ の空港の天気 - METARとTAF

ドーハ国際空港 ( OTBD / DOH ) - カタール ドーハ
飛行場実況気象(Metar)
観測時間06/15 01:00 AST (06/14 22:00 UTC)
風向・風速西 3m/s
視程10km以上
天気現象
なし
気温36℃
湿度17%
気圧997hPa
METAROTBD 142200Z AUTO 27006KT CAVOK 36/07 Q0997 NOSIG
過去の天気等 Google飛行場航空写真 Wunderground天気予報

過去48時間のMETAR

飛行場予報(TAF)
発表時間: 6/14 20:02 AST (6/14 17:02 UTC)
予報対象時間: 14日21時 AST ~ 16日3時 AST
風向・風速西南西 4m/s
視程8000m
なし
14日21時 AST ~ 15日8時 AST に一時的に
視程4000m
天気現象風塵
14日21時 AST ~ 15日8時 AST に 確率 30% で一時的に
視程1500m
天気現象風塵
15日7時 AST ~ 15日9時 AST に徐々に
風向・風速西北西 6m/s
15日13時 AST ~ 15日15時 AST に徐々に
風向・風速北北東 5m/s
TAF OTBD 141702Z 1418/1524 24007KT 8000 NSC
TEMPO 1418/1505 4000 DU
PROB30 TEMPO 1418/1505 1500 DU
BECMG 1504/1506 30012KT
BECMG 1510/1512 03009KT